createdAt,value
2023-11-23T00:00:25.184Z,0.7
2023-11-23T00:03:25.238Z,0.45
2023-11-23T00:06:25.182Z,0.25
2023-11-23T00:09:25.215Z,0.35
2023-11-23T00:12:25.140Z,0.55
2023-11-23T00:15:25.307Z,0.4
2023-11-23T00:18:25.376Z,0.1
2023-11-23T00:21:25.182Z,0.35
2023-11-23T00:24:25.200Z,0.2
2023-11-23T00:27:25.523Z,0.35
2023-11-23T00:30:25.223Z,0.55
2023-11-23T00:33:25.636Z,0.15
2023-11-23T00:36:25.228Z,0.9
2023-11-23T00:39:25.137Z,0.15
2023-11-23T00:42:25.172Z,0.5
2023-11-23T00:45:25.187Z,0.65
2023-11-23T00:48:25.571Z,0.6
2023-11-23T00:51:25.218Z,0.4
2023-11-23T00:54:25.195Z,0.65
2023-11-23T00:57:25.139Z,0.85
2023-11-23T01:00:25.368Z,0.45
2023-11-23T01:03:25.673Z,0.3
2023-11-23T01:06:25.176Z,0.15
2023-11-23T01:09:25.249Z,0.3
2023-11-23T01:12:25.218Z,0.35
2023-11-23T01:15:25.222Z,0.55
2023-11-23T01:18:25.413Z,0.75
2023-11-23T01:21:25.254Z,0.65
2023-11-23T01:24:25.189Z,1.15
2023-11-23T01:27:25.179Z,0.3
2023-11-23T01:30:25.293Z,0.15
2023-11-23T01:33:25.672Z,0.15
2023-11-23T01:36:25.237Z,0.4
2023-11-23T01:39:25.332Z,0.3
2023-11-23T01:42:25.252Z,0.7
2023-11-23T01:45:25.361Z,0.4
2023-11-23T01:48:25.417Z,0.5
2023-11-23T01:51:25.326Z,0.4
2023-11-23T01:54:25.243Z,0.95
2023-11-23T01:57:25.299Z,1.6
2023-11-23T02:00:25.202Z,1.6
2023-11-23T02:03:25.333Z,0.75
2023-11-23T02:06:25.256Z,1
2023-11-23T02:09:25.283Z,1.1
2023-11-23T02:12:25.273Z,0.5
2023-11-23T02:15:25.366Z,1.15
2023-11-23T02:18:25.585Z,1.2
2023-11-23T02:21:25.442Z,1.55
2023-11-23T02:24:25.271Z,0.9
2023-11-23T02:27:25.327Z,2.3
2023-11-23T02:30:25.395Z,0.6
2023-11-23T02:33:25.361Z,0.45
2023-11-23T02:36:25.327Z,0.65
2023-11-23T02:39:25.272Z,1.35
2023-11-23T02:42:25.360Z,1
2023-11-23T02:45:25.478Z,1
2023-11-23T02:48:25.504Z,0.6
2023-11-23T02:51:25.293Z,0.85
2023-11-23T02:54:25.388Z,0.75
2023-11-23T02:57:25.379Z,0.45
2023-11-23T03:00:25.372Z,0.45
2023-11-23T03:03:25.447Z,0.3
2023-11-23T03:06:25.288Z,0.45
2023-11-23T03:09:25.487Z,0.3
2023-11-23T03:12:25.406Z,0.3
2023-11-23T03:15:25.437Z,0.55
2023-11-23T03:18:25.647Z,1.25
2023-11-23T03:21:25.569Z,0.65
2023-11-23T03:24:25.402Z,1.3
2023-11-23T03:27:25.423Z,0.65
2023-11-23T03:30:25.416Z,1.3
2023-11-23T03:33:25.386Z,1.05
2023-11-23T03:36:25.448Z,0.55
2023-11-23T03:39:25.409Z,0.35
2023-11-23T03:42:25.406Z,0.8
2023-11-23T03:45:25.577Z,0.85
2023-11-23T03:48:25.476Z,0.35
2023-11-23T03:51:25.482Z,0.85
2023-11-23T03:54:25.410Z,1.4
2023-11-23T03:57:25.354Z,1.6
2023-11-23T04:00:25.461Z,0.6
2023-11-23T04:03:25.389Z,0.5
2023-11-23T04:06:25.387Z,0.55
2023-11-23T04:09:25.372Z,0.8
2023-11-23T04:12:25.364Z,0.75
2023-11-23T04:15:25.437Z,0.85
2023-11-23T04:18:25.411Z,2.05
2023-11-23T04:21:25.516Z,1.25
2023-11-23T04:24:25.517Z,0.7
2023-11-23T04:27:25.382Z,1
2023-11-23T04:30:25.482Z,1.25
2023-11-23T04:33:26.028Z,1.1
2023-11-23T04:36:25.415Z,1.2
2023-11-23T04:39:25.475Z,0.45
2023-11-23T04:42:25.471Z,0.9
2023-11-23T04:45:25.617Z,1.05
2023-11-23T04:48:25.721Z,1.1
2023-11-23T04:51:25.433Z,1.1
2023-11-23T04:54:25.518Z,0.6
2023-11-23T04:57:25.514Z,1
2023-11-23T05:00:25.669Z,1
2023-11-23T05:03:28.441Z,0.5
2023-11-23T05:06:25.505Z,1.25
2023-11-23T05:09:25.495Z,0.65
2023-11-23T05:12:25.515Z,0.95
2023-11-23T05:15:25.584Z,1.45
2023-11-23T05:18:25.575Z,0.4
2023-11-23T05:21:25.590Z,0.95
2023-11-23T05:24:25.540Z,0.95
2023-11-23T05:27:25.448Z,0.95
2023-11-23T05:30:25.630Z,0.75
2023-11-23T05:33:27.207Z,0.7
2023-11-23T05:36:25.489Z,0.35
2023-11-23T05:39:25.660Z,0.5
2023-11-23T05:42:26.573Z,0.7
2023-11-23T05:45:25.504Z,0.25
2023-11-23T05:48:25.761Z,0.45
2023-11-23T05:51:26.312Z,1.05
2023-11-23T05:54:25.826Z,1.05
2023-11-23T05:57:25.533Z,0.65
2023-11-23T06:00:25.566Z,0.85
2023-11-23T06:03:26.844Z,0.85
2023-11-23T06:06:25.533Z,0.85
2023-11-23T06:09:25.630Z,0.9
2023-11-23T06:12:25.446Z,0.5
2023-11-23T06:15:25.523Z,0.1
2023-11-23T06:18:27.753Z,0.55
2023-11-23T06:21:25.669Z,0.1
2023-11-23T06:24:25.594Z,0.35
2023-11-23T06:27:25.519Z,1.55
2023-11-23T06:30:25.548Z,0.65
2023-11-23T06:33:25.629Z,0.75
2023-11-23T06:36:25.495Z,1.1
2023-11-23T06:39:25.709Z,0.7
2023-11-23T06:42:25.605Z,0.4
2023-11-23T06:45:25.661Z,0.7
2023-11-23T06:48:25.688Z,0.5
2023-11-23T06:51:25.641Z,0.7
2023-11-23T06:54:25.690Z,1.4
2023-11-23T06:57:25.597Z,0.75
2023-11-23T07:00:25.837Z,0.65
2023-11-23T07:03:25.495Z,0.5
2023-11-23T07:06:25.736Z,0.9
2023-11-23T07:09:25.586Z,0.7
2023-11-23T07:12:25.862Z,1.35
2023-11-23T07:15:25.632Z,0.95
2023-11-23T07:18:25.604Z,1.1
2023-11-23T07:21:25.908Z,1.1
2023-11-23T07:24:25.611Z,0.85
2023-11-23T07:27:25.649Z,1.5
2023-11-23T07:30:25.713Z,1.65
2023-11-23T07:33:25.611Z,1.25
2023-11-23T07:36:25.635Z,2.15
2023-11-23T07:39:25.686Z,0.9
2023-11-23T07:42:25.752Z,0.5
2023-11-23T07:45:25.626Z,1.2
2023-11-23T07:48:25.718Z,0.95
2023-11-23T07:51:25.569Z,1.75
2023-11-23T07:54:25.616Z,1.05
2023-11-23T07:57:25.618Z,1.5
2023-11-23T08:00:25.749Z,2.75
2023-11-23T08:03:25.751Z,0.7
2023-11-23T08:06:25.653Z,1.4
2023-11-23T08:09:25.655Z,0.95
2023-11-23T08:12:25.645Z,1
2023-11-23T08:15:25.607Z,2.75
2023-11-23T08:18:36.379Z,1.25
2023-11-23T08:21:25.704Z,1.5
2023-11-23T08:24:25.658Z,2.75
2023-11-23T08:27:25.652Z,2.2
2023-11-23T08:30:25.698Z,1.8
2023-11-23T08:33:25.776Z,2.15
2023-11-23T08:36:25.684Z,2.2
2023-11-23T08:39:25.744Z,1.65
2023-11-23T08:42:25.756Z,1.6
2023-11-23T08:45:25.839Z,2.05
2023-11-23T08:48:25.763Z,1.25
2023-11-23T08:51:25.752Z,3.1
2023-11-23T08:54:25.664Z,1.95
2023-11-23T08:57:26.270Z,2
2023-11-23T09:00:25.697Z,1.95
2023-11-23T09:03:26.015Z,1.95
2023-11-23T09:06:25.871Z,1.4
2023-11-23T09:09:28.142Z,3.2
2023-11-23T09:12:25.748Z,1.25
2023-11-23T09:15:25.734Z,2.5
2023-11-23T09:18:26.007Z,1.95
2023-11-23T09:21:25.699Z,2.15
2023-11-23T09:24:25.770Z,1.7
2023-11-23T09:27:25.844Z,1.95
2023-11-23T09:30:25.763Z,1.25
2023-11-23T09:33:28.748Z,3.15
2023-11-23T09:36:25.789Z,2.25
2023-11-23T09:39:26.385Z,3.4
2023-11-23T09:42:25.735Z,1.4
2023-11-23T09:45:27.874Z,1.65
2023-11-23T09:48:25.697Z,1.55
2023-11-23T09:51:25.681Z,1.5
2023-11-23T09:54:26.335Z,1.6
2023-11-23T09:57:25.717Z,2.35
2023-11-23T10:00:25.912Z,1.35
2023-11-23T10:03:25.805Z,1.45
2023-11-23T10:06:25.822Z,1.55
2023-11-23T10:09:25.759Z,0.9
2023-11-23T10:12:25.688Z,1.35
2023-11-23T10:15:25.935Z,1.05
2023-11-23T10:18:25.823Z,0.7
2023-11-23T10:21:25.751Z,1.45
2023-11-23T10:24:25.745Z,1.05
2023-11-23T10:27:25.822Z,1.05
2023-11-23T10:30:25.730Z,1.7
2023-11-23T10:33:25.783Z,1.6
2023-11-23T10:36:25.798Z,1.15
2023-11-23T10:39:25.794Z,1.5
2023-11-23T10:42:26.119Z,1.55
2023-11-23T10:45:27.811Z,1.55
2023-11-23T10:48:25.923Z,0.95
2023-11-23T10:51:25.708Z,0.95
2023-11-23T10:54:25.840Z,1.05
2023-11-23T10:57:28.647Z,1.15
2023-11-23T11:00:26.812Z,1.7
2023-11-23T11:03:29.190Z,2.2
2023-11-23T11:06:25.787Z,1.9
2023-11-23T11:09:30.065Z,2.05
2023-11-23T11:12:25.799Z,1.65
2023-11-23T11:15:28.895Z,1.65
2023-11-23T11:18:25.841Z,0.6
2023-11-23T11:21:28.761Z,0.8
2023-11-23T11:24:25.823Z,1
2023-11-23T11:27:28.245Z,0.95
2023-11-23T11:30:26.113Z,1.2
2023-11-23T11:33:25.952Z,1.65
2023-11-23T11:36:25.843Z,1.65
2023-11-23T11:39:25.764Z,0.75
2023-11-23T11:42:25.894Z,0.6
2023-11-23T11:45:25.909Z,1
2023-11-23T11:48:25.930Z,1.25
2023-11-23T11:51:25.866Z,1.05
2023-11-23T11:54:25.864Z,1.65
2023-11-23T11:57:26.010Z,1.2
2023-11-23T12:00:25.845Z,2.65
2023-11-23T12:03:25.990Z,1.35
2023-11-23T12:06:25.957Z,1
2023-11-23T12:09:34.389Z,1.65
2023-11-23T12:12:25.955Z,1.4
2023-11-23T12:15:25.915Z,1.4
2023-11-23T12:18:25.892Z,0.8
2023-11-23T12:21:26.190Z,1.55
2023-11-23T12:24:25.863Z,2
2023-11-23T12:27:25.997Z,1.35
2023-11-23T12:30:25.940Z,2.65
2023-11-23T12:33:25.829Z,1.9
2023-11-23T12:36:26.015Z,1.6
2023-11-23T12:39:25.941Z,2
2023-11-23T12:42:26.003Z,1.2
2023-11-23T12:45:26.150Z,1.35
2023-11-23T12:48:26.091Z,2.45
2023-11-23T12:51:26.090Z,2.35
2023-11-23T12:54:25.979Z,1.05
2023-11-23T12:57:25.927Z,2.6
2023-11-23T13:00:25.979Z,1.9
2023-11-23T13:03:26.232Z,1.7
2023-11-23T13:06:25.934Z,1.85
2023-11-23T13:09:30.263Z,2.5
2023-11-23T13:12:25.898Z,2.5
2023-11-23T13:15:29.350Z,1.2
2023-11-23T13:18:44.802Z,1.95
2023-11-23T13:21:28.787Z,2.1
2023-11-23T13:24:25.868Z,1.35
2023-11-23T13:27:28.647Z,1.5
2023-11-23T13:30:25.962Z,1.85
2023-11-23T13:33:26.009Z,1.35
2023-11-23T13:36:25.986Z,1.65
2023-11-23T13:39:26.020Z,1.75
2023-11-23T13:42:25.954Z,0.8
2023-11-23T13:45:26.006Z,1.6
2023-11-23T13:48:26.039Z,2.05
2023-11-23T13:51:30.247Z,0.75
2023-11-23T13:54:26.033Z,0.85
2023-11-23T13:57:25.954Z,1.05
2023-11-23T14:00:26.005Z,2.3
2023-11-23T14:03:28.846Z,1.95
2023-11-23T14:06:25.967Z,2.3
2023-11-23T14:09:29.781Z,1.2
2023-11-23T14:12:25.979Z,1.9
2023-11-23T14:15:25.968Z,1.95
2023-11-23T14:18:26.026Z,1.5
2023-11-23T14:21:29.092Z,1.55
2023-11-23T14:24:26.031Z,2.25
2023-11-23T14:27:31.348Z,1.55
2023-11-23T14:30:26.132Z,1.2
2023-11-23T14:36:25.939Z,1.25
2023-11-23T14:39:26.132Z,2.8
2023-11-23T14:42:25.935Z,0.95
2023-11-23T14:45:30.433Z,2.35
2023-11-23T14:48:26.225Z,2.05
2023-11-23T14:51:30.584Z,2.1
2023-11-23T14:54:34.522Z,2.1
2023-11-23T14:57:29.629Z,1.85
2023-11-23T15:00:25.950Z,1.15
2023-11-23T15:03:26.041Z,2.2
2023-11-23T15:06:25.969Z,2.3
2023-11-23T15:09:28.934Z,2.15
2023-11-23T15:12:26.001Z,3.95
2023-11-23T15:15:32.705Z,2.15
2023-11-23T15:18:26.282Z,2.3
2023-11-23T15:21:29.995Z,2.85
2023-11-23T15:24:26.064Z,2.25
2023-11-23T15:27:29.440Z,2.5
2023-11-23T15:30:26.074Z,2.9
2023-11-23T15:33:31.514Z,2.45
2023-11-23T15:36:25.998Z,2.65
2023-11-23T15:39:30.171Z,2.8
2023-11-23T15:42:26.134Z,2.5
2023-11-23T15:45:26.042Z,2.95
2023-11-23T15:48:25.949Z,2.9
2023-11-23T15:51:26.051Z,2.5
2023-11-23T15:54:26.726Z,3.05
2023-11-23T15:57:25.983Z,2.3
2023-11-23T16:00:26.714Z,2.6
2023-11-23T16:03:29.417Z,3
2023-11-23T16:06:26.100Z,2.45
2023-11-23T16:09:28.705Z,3
2023-11-23T16:12:26.032Z,2.65
2023-11-23T16:15:26.244Z,2.25
2023-11-23T16:18:26.128Z,4.75
2023-11-23T16:21:26.166Z,3.6
2023-11-23T16:24:26.145Z,1.85
2023-11-23T16:27:26.257Z,5.15
2023-11-23T16:30:26.080Z,2.35
2023-11-23T16:33:26.043Z,3.2
2023-11-23T16:36:33.654Z,2.9
2023-11-23T16:39:26.488Z,3.2
2023-11-23T16:42:26.404Z,3.2
2023-11-23T16:45:26.072Z,5.35
2023-11-23T16:48:26.381Z,3.35
2023-11-23T16:51:26.258Z,3
2023-11-23T16:54:26.180Z,3.3
2023-11-23T16:57:26.058Z,3.15
2023-11-23T17:00:26.298Z,2.15
2023-11-23T17:03:26.119Z,4.4
2023-11-23T17:06:28.366Z,3.95
2023-11-23T17:09:26.026Z,3
2023-11-23T17:12:26.171Z,4.1
2023-11-23T17:15:26.127Z,1.8
2023-11-23T17:18:26.669Z,3.6
2023-11-23T17:21:26.161Z,3
2023-11-23T17:24:26.162Z,3.1
2023-11-23T17:27:26.175Z,1.9
2023-11-23T17:30:26.137Z,1.8
2023-11-23T17:33:26.234Z,3.1
2023-11-23T17:36:26.089Z,2.15
2023-11-23T17:39:26.123Z,2.15
2023-11-23T17:42:26.175Z,1.65
2023-11-23T17:45:26.412Z,2.8
2023-11-23T17:48:26.113Z,3.4
2023-11-23T17:51:26.164Z,2.65
2023-11-23T17:54:26.090Z,3.05
2023-11-23T17:57:26.210Z,3.2
2023-11-23T18:00:26.152Z,2.7
2023-11-23T18:03:26.138Z,3.25
2023-11-23T18:06:26.155Z,3.95
2023-11-23T18:09:26.245Z,3.05
2023-11-23T18:12:26.242Z,3.3
2023-11-23T18:15:27.179Z,2.5
2023-11-23T18:18:26.350Z,5.15
2023-11-23T18:21:26.204Z,4.35
2023-11-23T18:24:26.190Z,2.7
2023-11-23T18:27:26.133Z,2.3
2023-11-23T18:30:26.336Z,1.85
2023-11-23T18:33:26.273Z,2.45
2023-11-23T18:36:26.243Z,2.5
2023-11-23T18:39:26.197Z,2.75
2023-11-23T18:42:29.416Z,1.85
2023-11-23T18:45:26.199Z,2
2023-11-23T18:48:26.281Z,3.1
2023-11-23T18:51:26.175Z,2
2023-11-23T18:54:26.258Z,3.55
2023-11-23T18:57:26.185Z,1.7
2023-11-23T19:00:26.271Z,2.9
2023-11-23T19:03:26.436Z,2.6
2023-11-23T19:06:26.436Z,1.7
2023-11-23T19:09:26.281Z,2.6
2023-11-23T19:12:26.171Z,1.9
2023-11-23T19:15:26.221Z,3.55
2023-11-23T19:18:26.176Z,3.3
2023-11-23T19:21:26.199Z,2.2
2023-11-23T19:24:26.463Z,2.7
2023-11-23T19:27:26.283Z,2.2
2023-11-23T19:30:26.412Z,2.35
2023-11-23T19:33:26.308Z,2.4
2023-11-23T19:36:29.942Z,2.25
2023-11-23T19:39:26.256Z,2.3
2023-11-23T19:42:26.192Z,2.65
2023-11-23T19:45:26.241Z,2.3
2023-11-23T19:48:26.250Z,3.2
2023-11-23T19:51:26.390Z,2.6
2023-11-23T19:54:26.233Z,1.9
2023-11-23T19:57:26.513Z,1.75
2023-11-23T20:00:26.386Z,2.45
2023-11-23T20:03:26.321Z,2.75
2023-11-23T20:06:26.273Z,3.35
2023-11-23T20:09:26.439Z,2.15
2023-11-23T20:12:27.421Z,2.75
2023-11-23T20:15:27.372Z,2.1
2023-11-23T20:18:26.294Z,2.45
2023-11-23T20:21:26.329Z,3.1
2023-11-23T20:24:26.427Z,2.8
2023-11-23T20:27:26.284Z,3.8
2023-11-23T20:30:26.233Z,2.6
2023-11-23T20:33:26.443Z,1.95
2023-11-23T20:36:28.863Z,2.05
2023-11-23T20:39:26.266Z,2.3
2023-11-23T20:42:26.299Z,2.1
2023-11-23T20:45:26.273Z,2.7
2023-11-23T20:48:26.408Z,3
2023-11-23T20:51:26.278Z,2.5
2023-11-23T20:54:26.188Z,2.5
2023-11-23T20:57:26.214Z,3.55
2023-11-23T21:00:26.303Z,1.7
2023-11-23T21:03:26.598Z,3.2
2023-11-23T21:06:29.367Z,2.25
2023-11-23T21:09:26.316Z,3.25
2023-11-23T21:12:29.348Z,2.6
2023-11-23T21:15:26.276Z,3.75
2023-11-23T21:18:26.729Z,2.3
2023-11-23T21:21:26.354Z,2.85
2023-11-23T21:24:26.688Z,2.1
2023-11-23T21:27:26.373Z,4.75
2023-11-23T21:30:26.424Z,1.9
2023-11-23T21:33:26.320Z,2.65
2023-11-23T21:36:26.355Z,2.05
2023-11-23T21:39:26.360Z,3.45
2023-11-23T21:42:26.353Z,2.45
2023-11-23T21:45:26.339Z,2.3
2023-11-23T21:48:26.369Z,3.75
2023-11-23T21:51:26.352Z,3.85
2023-11-23T21:54:26.314Z,2.4
2023-11-23T21:57:26.386Z,4.7
2023-11-23T22:00:26.332Z,2.35
2023-11-23T22:03:26.525Z,3.1
2023-11-23T22:06:26.313Z,3.75
2023-11-23T22:09:26.368Z,3.65
2023-11-23T22:12:26.402Z,2.6
2023-11-23T22:15:26.420Z,2.4
2023-11-23T22:18:26.363Z,3.45
2023-11-23T22:21:26.438Z,3.65
2023-11-23T22:24:26.362Z,2.4
2023-11-23T22:27:26.426Z,2.4
2023-11-23T22:30:26.450Z,3.1
2023-11-23T22:33:26.481Z,2.55
2023-11-23T22:36:26.357Z,3.1
2023-11-23T22:39:26.285Z,4.7
2023-11-23T22:42:26.407Z,3.35
2023-11-23T22:45:26.390Z,3.15
2023-11-23T22:48:26.411Z,2.75
2023-11-23T22:51:26.409Z,2.85
2023-11-23T22:54:26.442Z,2.65
2023-11-23T22:57:26.366Z,2.55
2023-11-23T23:00:26.574Z,1.85
2023-11-23T23:03:26.613Z,2.85
2023-11-23T23:06:26.471Z,3.65
2023-11-23T23:09:26.348Z,2.45
2023-11-23T23:12:26.400Z,2.65
2023-11-23T23:15:26.400Z,4.85
2023-11-23T23:18:26.371Z,2.65
2023-11-23T23:21:26.637Z,2.4
2023-11-23T23:24:26.531Z,1.8
2023-11-23T23:27:26.594Z,2.8
2023-11-23T23:30:26.413Z,3.65
2023-11-23T23:33:26.893Z,2.75
2023-11-23T23:36:26.401Z,2.6
2023-11-23T23:39:26.450Z,2.65
2023-11-23T23:42:26.440Z,2.35
2023-11-23T23:45:26.414Z,5.05
2023-11-23T23:48:26.413Z,2.15
2023-11-23T23:51:26.454Z,3.05
2023-11-23T23:54:26.490Z,2.3
2023-11-23T23:57:26.435Z,3.6
